Time;durP1;ratioP1;P1;durP2;ratioP2;P2;SDS_P1;SDS_P2;PMS_P1;PMS_P2;Temp;Humidity;BMP_temperature;BMP_pressure;BME280_temperature;BME280_humidity;BME280_pressure;Samples;Min_cycle;Max_cycle;Signal;HPM_P1;HPM_P2
2024/02/06 00:02:38;;;;;;;4.10;2.00;;;23.60;50.40;;;;;;6144861;28;80952;-60
2024/02/06 00:05:39;;;;;;;2.75;1.80;;;23.60;50.30;;;;;;6155105;28;80392;-60
2024/02/06 00:08:39;;;;;;;3.30;2.15;;;23.60;50.50;;;;;;6156113;28;81590;-60
2024/02/06 00:11:40;;;;;;;5.18;2.15;;;23.60;50.50;;;;;;6145182;28;80493;-62
2024/02/06 00:14:40;;;;;;;5.15;2.03;;;23.60;50.60;;;;;;6155274;28;80933;-61
2024/02/06 00:17:41;;;;;;;3.53;1.92;;;23.60;50.40;;;;;;6144280;28;80606;-62
2024/02/06 00:20:41;;;;;;;2.80;1.90;;;23.60;50.20;;;;;;6142479;28;80316;-61
2024/02/06 00:23:42;;;;;;;3.53;1.90;;;23.60;50.00;;;;;;6154330;28;80891;-61
2024/02/06 00:26:43;;;;;;;4.43;2.20;;;23.60;50.10;;;;;;6155435;28;80535;-63
2024/02/06 00:29:43;;;;;;;5.18;1.80;;;23.60;49.90;;;;;;6155004;28;80718;-62
2024/02/06 00:32:44;;;;;;;3.88;2.00;;;23.60;50.00;;;;;;6154497;28;80111;-61
2024/02/06 00:35:45;;;;;;;3.67;2.00;;;23.60;50.00;;;;;;6142089;28;81613;-61
2024/02/06 00:38:45;;;;;;;3.15;1.75;;;23.60;50.00;;;;;;6151000;28;80153;-60
2024/02/06 00:41:46;;;;;;;3.00;1.73;;;23.50;50.20;;;;;;6150763;28;80436;-61
2024/02/06 00:44:46;;;;;;;2.65;1.73;;;23.60;50.20;;;;;;6149144;28;82707;-61
2024/02/06 00:47:49;;;;;;;3.95;1.80;;;23.60;50.10;;;;;;6152883;28;80371;-61
2024/02/06 00:50:49;;;;;;;3.45;2.17;;;23.60;50.00;;;;;;6153606;28;81165;-62
2024/02/06 00:53:50;;;;;;;3.03;1.70;;;23.60;49.90;;;;;;6155276;28;80300;-61
2024/02/06 00:56:50;;;;;;;2.90;1.60;;;23.60;50.00;;;;;;6154296;28;81376;-64
2024/02/06 00:59:51;;;;;;;4.15;1.92;;;23.60;50.00;;;;;;6154358;28;83333;-64
2024/02/06 01:02:52;;;;;;;4.47;2.00;;;23.50;50.10;;;;;;6154189;28;81265;-64
2024/02/06 01:05:52;;;;;;;4.90;1.85;;;23.60;50.00;;;;;;6151804;28;80418;-64
2024/02/06 01:08:53;;;;;;;7.15;1.70;;;23.50;50.00;;;;;;6153854;28;80924;-64
2024/02/06 01:11:53;;;;;;;3.40;1.70;;;23.50;49.90;;;;;;6151429;28;81943;-66
2024/02/06 01:14:55;;;;;;;3.65;1.92;;;23.60;49.90;;;;;;6155140;28;80988;-63
2024/02/06 01:17:55;;;;;;;8.73;2.28;;;23.60;49.80;;;;;;6153521;28;80467;-61
2024/02/06 01:20:56;;;;;;;3.80;1.83;;;23.60;49.80;;;;;;6152186;28;80274;-61
2024/02/06 01:23:56;;;;;;;4.72;1.70;;;23.60;49.80;;;;;;6153369;28;80435;-62
2024/02/06 01:26:57;;;;;;;4.82;1.70;;;23.60;49.80;;;;;;6153149;28;80173;-61
2024/02/06 01:29:58;;;;;;;4.07;2.38;;;23.60;49.80;;;;;;6152973;28;80671;-62
2024/02/06 01:32:58;;;;;;;2.78;1.75;;;23.60;50.10;;;;;;6143538;28;80959;-52
2024/02/06 01:35:59;;;;;;;2.67;1.50;;;23.60;49.80;;;;;;6143447;28;80185;-53
2024/02/06 01:39:00;;;;;;;5.22;2.08;;;23.60;49.80;;;;;;6154183;28;80947;-53
2024/02/06 01:42:00;;;;;;;2.25;1.83;;;23.60;49.80;;;;;;6143649;28;80613;-52
2024/02/06 01:45:00;;;;;;;2.22;1.33;;;23.60;49.90;;;;;;6151767;28;80488;-54
2024/02/06 01:48:01;;;;;;;3.25;1.48;;;23.60;49.70;;;;;;6152529;28;80101;-53
2024/02/06 01:51:01;;;;;;;3.47;2.13;;;23.60;49.70;;;;;;6152511;28;80246;-53
2024/02/06 01:54:02;;;;;;;3.65;1.70;;;23.60;49.60;;;;;;6154935;28;80418;-51
2024/02/06 01:57:02;;;;;;;2.03;1.33;;;23.60;49.80;;;;;;6142973;28;80940;-47
2024/02/06 02:00:03;;;;;;;2.00;1.50;;;23.60;49.50;;;;;;6153030;28;81126;-48
2024/02/06 02:03:12;;;;;;;5.00;1.40;;;23.60;49.50;;;;;;6137328;28;80349;-53
2024/02/06 02:06:13;;;;;;;3.55;1.63;;;23.50;49.90;;;;;;6149678;28;88161;-50
2024/02/06 02:09:13;;;;;;;3.03;1.52;;;23.60;49.70;;;;;;6142932;28;81629;-50
2024/02/06 02:12:14;;;;;;;4.90;1.55;;;23.60;49.70;;;;;;6160184;28;80424;-52
2024/02/06 02:15:14;;;;;;;2.30;1.15;;;23.60;49.70;;;;;;6169028;28;81119;-52
2024/02/06 02:18:15;;;;;;;2.15;1.40;;;23.60;49.70;;;;;;6153219;28;80418;-52
2024/02/06 02:21:18;;;;;;;2.88;1.67;;;23.60;49.80;;;;;;6151991;28;81137;-51
2024/02/06 02:24:19;;;;;;;5.82;1.92;;;23.60;49.70;;;;;;6154543;28;80407;-49
2024/02/06 02:27:20;;;;;;;3.78;1.98;;;23.60;49.60;;;;;;6130085;28;80451;-52
2024/02/06 02:30:20;;;;;;;2.72;1.63;;;23.60;49.50;;;;;;6148810;28;81585;-55
2024/02/06 02:33:21;;;;;;;2.95;1.40;;;23.60;49.50;;;;;;6147104;28;80411;-51
2024/02/06 02:36:21;;;;;;;2.90;1.33;;;23.60;49.50;;;;;;6149928;28;81924;-49
2024/02/06 02:39:22;;;;;;;2.85;1.70;;;23.60;49.50;;;;;;6151645;28;80661;-48
2024/02/06 02:42:23;;;;;;;2.30;1.33;;;23.60;49.20;;;;;;6152282;28;81810;-50
2024/02/06 02:45:23;;;;;;;3.47;1.52;;;23.60;49.20;;;;;;6152470;28;81145;-51
2024/02/06 02:48:24;;;;;;;2.25;1.33;;;23.60;49.10;;;;;;6152159;28;80632;-63
2024/02/06 02:51:24;;;;;;;3.83;1.83;;;23.60;49.10;;;;;;6151722;28;80938;-61
2024/02/06 02:54:28;;;;;;;4.30;1.77;;;23.60;49.10;;;;;;6152506;28;80989;-61
2024/02/06 02:57:28;;;;;;;3.58;1.58;;;23.60;49.00;;;;;;6152502;28;80548;-61
2024/02/06 03:00:29;;;;;;;3.75;1.70;;;23.60;49.00;;;;;;6142760;28;81080;-61
2024/02/06 03:03:29;;;;;;;2.55;1.58;;;23.60;48.90;;;;;;6160506;28;80917;-61
2024/02/06 03:06:30;;;;;;;4.25;1.77;;;23.60;49.00;;;;;;6157275;28;80591;-61
2024/02/06 03:09:30;;;;;;;2.47;1.20;;;23.60;49.10;;;;;;6146753;28;80869;-60
2024/02/06 03:12:34;;;;;;;6.40;1.80;;;23.50;49.10;;;;;;6159495;28;82410;-60
2024/02/06 03:15:34;;;;;;;4.32;1.90;;;23.50;49.10;;;;;;6159353;28;80572;-62
2024/02/06 03:18:35;;;;;;;4.00;1.33;;;23.50;49.00;;;;;;6158649;28;80590;-62
2024/02/06 03:21:35;;;;;;;5.35;1.75;;;23.60;49.10;;;;;;6159009;28;80460;-60
2024/02/06 03:24:36;;;;;;;4.05;1.60;;;23.60;49.20;;;;;;6159767;28;80398;-63
2024/02/06 03:27:39;;;;;;;2.22;1.30;;;23.60;49.30;;;;;;6155990;28;80274;-63
2024/02/06 03:30:41;;;;;;;2.97;1.50;;;23.60;49.20;;;;;;6157335;28;81185;-64
2024/02/06 03:33:42;;;;;;;2.85;1.55;;;23.60;49.50;;;;;;6159187;28;80763;-63
2024/02/06 03:36:42;;;;;;;2.53;1.08;;;23.50;49.20;;;;;;6159126;28;83077;-63
2024/02/06 03:39:43;;;;;;;2.60;1.35;;;23.60;49.20;;;;;;6170710;28;87008;-63
2024/02/06 03:42:43;;;;;;;3.28;1.67;;;23.60;49.30;;;;;;6163421;28;80511;-63
2024/02/06 03:45:44;;;;;;;4.15;1.70;;;23.50;49.10;;;;;;6159443;28;80550;-63
2024/02/06 03:48:44;;;;;;;3.10;1.60;;;23.60;49.30;;;;;;6160005;28;80775;-63
2024/02/06 03:51:45;;;;;;;2.67;1.75;;;23.60;49.10;;;;;;6158413;28;80439;-63
2024/02/06 03:54:46;;;;;;;2.90;1.63;;;23.60;49.80;;;;;;6146421;28;82104;-62
2024/02/06 03:57:46;;;;;;;2.80;1.30;;;23.60;49.20;;;;;;6158895;28;80582;-61
2024/02/06 04:00:49;;;;;;;2.85;1.65;;;23.60;49.30;;;;;;6155545;28;81900;-62
2024/02/06 04:03:50;;;;;;;2.25;1.30;;;23.60;49.30;;;;;;6157737;28;81044;-61
2024/02/06 04:06:50;;;;;;;4.55;1.80;;;23.60;49.10;;;;;;6151669;28;84116;-70
2024/02/06 04:09:51;;;;;;;2.72;1.50;;;23.60;49.60;;;;;;6157380;28;80897;-64
2024/02/06 04:12:52;;;;;;;4.82;1.33;;;23.60;49.20;;;;;;6155707;28;80446;-68
2024/02/06 04:15:52;;;;;;;4.10;1.77;;;23.60;49.10;;;;;;6153931;28;80945;-64
2024/02/06 04:18:53;;;;;;;3.60;1.58;;;23.60;49.00;;;;;;6155136;28;80546;-53
2024/02/06 04:21:53;;;;;;;2.78;1.38;;;23.60;48.50;;;;;;6155611;28;80516;-48
2024/02/06 04:24:54;;;;;;;3.92;1.55;;;23.60;48.30;;;;;;6147236;28;81825;-47
2024/02/06 04:27:54;;;;;;;2.90;1.58;;;23.60;48.70;;;;;;6168128;28;80685;-51
2024/02/06 04:30:55;;;;;;;2.33;1.40;;;23.60;48.90;;;;;;6158701;28;80137;-51
2024/02/06 04:33:56;;;;;;;2.67;1.42;;;23.60;48.90;;;;;;6150805;28;80741;-52
2024/02/06 04:36:56;;;;;;;3.03;1.23;;;23.60;48.50;;;;;;6152132;28;80521;-51
2024/02/06 04:39:57;;;;;;;3.78;2.15;;;23.60;48.60;;;;;;6154760;28;80851;-49
2024/02/06 04:42:57;;;;;;;3.15;1.50;;;23.60;48.80;;;;;;6151797;28;80693;-55
2024/02/06 04:45:58;;;;;;;4.10;1.95;;;23.70;48.90;;;;;;6152125;28;80248;-52
2024/02/06 04:48:59;;;;;;;2.80;1.50;;;23.70;48.70;;;;;;6154356;28;80455;-53
2024/02/06 04:52:00;;;;;;;2.70;1.58;;;23.70;48.70;;;;;;6147112;28;80272;-55
2024/02/06 04:55:01;;;;;;;4.90;2.10;;;23.70;48.50;;;;;;6154291;28;81041;-51
2024/02/06 04:58:01;;;;;;;5.20;1.67;;;23.70;48.90;;;;;;6147578;28;83660;-64
2024/02/06 05:01:02;;;;;;;4.05;1.58;;;23.80;49.30;;;;;;6153306;28;80409;-66
2024/02/06 05:04:02;;;;;;;3.25;1.63;;;23.80;49.70;;;;;;6152067;28;82163;-67
2024/02/06 05:07:03;;;;;;;4.38;1.63;;;23.80;49.90;;;;;;6151838;28;81565;-65
2024/02/06 05:10:03;;;;;;;7.85;1.58;;;23.90;49.90;;;;;;6154179;28;80492;-63
2024/02/06 05:13:04;;;;;;;1.98;1.50;;;23.90;49.90;;;;;;6154700;28;81164;-64
2024/02/06 05:16:05;;;;;;;4.35;1.33;;;23.90;49.70;;;;;;6152555;28;80413;-67
2024/02/06 05:19:07;;;;;;;3.00;1.42;;;23.90;50.20;;;;;;6153639;28;81001;-60
2024/02/06 05:22:08;;;;;;;7.03;1.95;;;24.00;49.90;;;;;;6148285;28;82829;-69
2024/02/06 05:25:08;;;;;;;6.65;1.63;;;24.00;50.30;;;;;;6150652;28;81033;-63
2024/02/06 05:28:09;;;;;;;9.20;1.80;;;24.00;50.30;;;;;;6127914;28;87395;-65
2024/02/06 05:31:10;;;;;;;3.42;1.48;;;24.00;50.60;;;;;;6136649;28;84863;-65
2024/02/06 05:34:10;;;;;;;2.50;1.40;;;24.00;50.40;;;;;;6134313;28;81656;-65
2024/02/06 05:37:11;;;;;;;4.63;1.60;;;24.00;50.10;;;;;;6146176;28;81527;-65
2024/02/06 05:40:12;;;;;;;4.40;1.77;;;24.00;50.00;;;;;;6136958;28;80624;-66
2024/02/06 05:43:12;;;;;;;7.60;2.03;;;24.00;49.70;;;;;;6150464;28;81144;-65
2024/02/06 05:46:13;;;;;;;4.20;1.48;;;24.00;50.20;;;;;;6155660;28;86209;-66
2024/02/06 05:49:13;;;;;;;7.78;2.30;;;24.00;49.60;;;;;;6153317;28;80473;-67
2024/02/06 05:52:14;;;;;;;4.38;1.80;;;24.00;49.70;;;;;;6165452;28;80947;-58
2024/02/06 05:55:14;;;;;;;6.30;2.30;;;23.90;49.50;;;;;;6174543;28;80783;-58
2024/02/06 05:58:15;;;;;;;4.10;1.73;;;23.90;49.50;;;;;;6166104;28;83135;-57
2024/02/06 06:01:15;;;;;;;5.88;1.67;;;23.90;49.30;;;;;;6153952;28;80550;-59
2024/02/06 06:04:16;;;;;;;3.47;1.88;;;23.90;49.30;;;;;;6173558;28;80504;-58
2024/02/06 06:07:16;;;;;;;4.25;1.40;;;23.80;49.10;;;;;;6174485;28;81186;-57
2024/02/06 06:10:17;;;;;;;4.93;1.83;;;23.80;49.00;;;;;;6174603;28;81016;-53
2024/02/06 06:13:17;;;;;;;2.92;1.90;;;23.80;48.90;;;;;;6175876;28;82514;-53
2024/02/06 06:16:18;;;;;;;4.50;2.00;;;23.80;48.80;;;;;;6173308;28;86098;-52
2024/02/06 06:19:18;;;;;;;3.88;1.65;;;23.90;48.70;;;;;;6169718;28;80454;-54
2024/02/06 06:22:19;;;;;;;5.10;2.15;;;23.80;48.60;;;;;;6176155;28;80376;-51
2024/02/06 06:25:19;;;;;;;3.10;1.50;;;23.80;48.60;;;;;;6176131;28;80251;-51
2024/02/06 06:28:20;;;;;;;4.90;1.85;;;23.80;48.50;;;;;;6176073;28;80412;-52
2024/02/06 06:31:20;;;;;;;6.60;2.58;;;23.80;48.10;;;;;;6152160;28;81697;-53
2024/02/06 06:34:21;;;;;;;4.38;1.80;;;23.80;48.10;;;;;;6151090;28;80750;-52
2024/02/06 06:37:22;;;;;;;6.55;1.70;;;23.70;47.80;;;;;;6151809;28;82321;-49
2024/02/06 06:40:22;;;;;;;3.78;2.05;;;23.70;48.10;;;;;;6156999;28;80711;-47
2024/02/06 06:43:23;;;;;;;7.38;2.33;;;23.70;48.10;;;;;;6158771;28;80544;-48
2024/02/06 06:46:23;;;;;;;4.30;1.58;;;23.60;47.60;;;;;;6154425;28;80974;-51
2024/02/06 06:49:24;;;;;;;5.80;1.55;;;23.60;47.70;;;;;;6175700;28;80484;-50
2024/02/06 06:52:24;;;;;;;3.08;1.63;;;23.60;47.70;;;;;;6177020;28;80515;-49
2024/02/06 06:55:25;;;;;;;3.28;1.67;;;23.60;47.60;;;;;;6175204;28;80177;-52
2024/02/06 06:58:25;;;;;;;5.00;1.70;;;23.60;47.50;;;;;;6165834;28;81079;-54
2024/02/06 07:01:26;;;;;;;4.70;1.92;;;23.60;47.30;;;;;;6171879;28;80959;-50
2024/02/06 07:04:26;;;;;;;7.25;1.75;;;23.60;47.50;;;;;;6161765;28;81180;-57
2024/02/06 07:07:27;;;;;;;3.25;1.92;;;23.60;47.30;;;;;;6176849;28;80339;-58
2024/02/06 07:10:27;;;;;;;4.40;1.55;;;23.60;47.30;;;;;;6150183;28;80884;-59
2024/02/06 07:13:28;;;;;;;2.90;1.65;;;23.50;47.30;;;;;;6171199;28;81242;-58
2024/02/06 07:16:28;;;;;;;3.40;1.63;;;23.60;47.00;;;;;;6173630;28;80324;-59
2024/02/06 07:19:29;;;;;;;3.95;1.70;;;23.50;46.90;;;;;;6173549;28;80443;-59
2024/02/06 07:22:33;;;;;;;6.55;2.10;;;23.50;46.80;;;;;;6172864;28;81852;-59
2024/02/06 07:25:33;;;;;;;2.63;1.65;;;23.50;46.70;;;;;;6173517;28;80431;-49
2024/02/06 07:28:34;;;;;;;4.65;1.75;;;23.50;46.60;;;;;;6175217;28;84086;-51
2024/02/06 07:31:34;;;;;;;2.53;1.52;;;23.50;46.50;;;;;;6175513;28;81003;-52
2024/02/06 07:34:35;;;;;;;3.65;2.00;;;23.50;46.50;;;;;;6173063;28;80711;-50
2024/02/06 07:37:37;;;;;;;5.03;1.85;;;23.50;46.50;;;;;;6174054;28;80432;-51
2024/02/06 07:40:38;;;;;;;3.72;1.67;;;23.50;46.70;;;;;;6164998;28;80639;-56
2024/02/06 07:43:38;;;;;;;4.53;2.00;;;23.50;46.40;;;;;;6173476;28;80408;-61
2024/02/06 07:46:39;;;;;;;5.45;1.98;;;23.50;46.40;;;;;;6174984;28;80382;-61
2024/02/06 07:49:40;;;;;;;4.20;1.67;;;23.50;46.30;;;;;;6178959;28;82138;-58
2024/02/06 07:52:42;;;;;;;6.57;2.35;;;23.50;46.10;;;;;;6178474;28;80707;-60
2024/02/06 07:55:42;;;;;;;5.47;2.58;;;23.50;46.10;;;;;;6178639;28;80503;-60
2024/02/06 07:58:43;;;;;;;3.40;2.10;;;23.50;46.90;;;;;;6168044;28;81676;-60
2024/02/06 08:01:43;;;;;;;5.80;2.47;;;23.50;46.30;;;;;;6167365;28;80711;-59
2024/02/06 08:04:45;;;;;;;6.78;2.15;;;23.50;46.30;;;;;;6158333;28;81186;-62
2024/02/06 08:07:46;;;;;;;5.57;2.50;;;23.50;46.20;;;;;;6178981;28;81817;-60
2024/02/06 08:10:47;;;;;;;4.90;2.20;;;23.50;46.30;;;;;;6172901;28;80319;-60
2024/02/06 08:13:48;;;;;;;6.55;2.05;;;23.50;46.20;;;;;;6179509;28;80456;-61
2024/02/06 08:16:49;;;;;;;3.38;1.75;;;23.50;46.30;;;;;;6178039;28;80387;-60
2024/02/06 08:19:50;;;;;;;6.35;2.20;;;23.50;46.20;;;;;;6178453;28;80848;-59
2024/02/06 08:22:50;;;;;;;4.00;2.17;;;23.50;46.20;;;;;;6177531;28;80473;-59
2024/02/06 08:25:51;;;;;;;4.13;2.17;;;23.50;46.10;;;;;;6178533;28;81090;-59
2024/02/06 08:28:51;;;;;;;6.50;2.25;;;23.50;46.10;;;;;;6178181;28;80425;-60
2024/02/06 08:31:52;;;;;;;5.50;2.35;;;23.50;46.10;;;;;;6176166;28;83382;-60
2024/02/06 08:34:52;;;;;;;3.97;1.88;;;23.50;46.10;;;;;;6178551;28;80893;-61
2024/02/06 08:37:53;;;;;;;4.22;2.22;;;23.50;46.00;;;;;;6164909;28;82686;-61
2024/02/06 08:40:54;;;;;;;5.65;2.22;;;23.50;46.00;;;;;;6177570;28;80495;-61
2024/02/06 08:43:55;;;;;;;3.97;1.90;;;23.50;45.90;;;;;;6177156;28;80866;-61
2024/02/06 08:46:55;;;;;;;4.28;2.20;;;23.50;46.00;;;;;;6177765;28;80335;-61
2024/02/06 08:49:57;;;;;;;4.82;2.30;;;23.50;45.80;;;;;;6176135;28;80382;-62
2024/02/06 08:52:58;;;;;;;3.55;1.90;;;23.50;45.90;;;;;;6178689;28;82639;-62
2024/02/06 08:56:01;;;;;;;4.72;2.17;;;23.40;45.80;;;;;;6179294;28;80497;-56
2024/02/06 08:59:03;;;;;;;4.30;2.15;;;23.50;45.80;;;;;;6176323;28;80447;-57
2024/02/06 09:02:04;;;;;;;3.95;1.70;;;23.50;45.70;;;;;;6166788;28;80855;-58
2024/02/06 09:05:04;;;;;;;5.45;2.15;;;23.50;45.80;;;;;;6174395;28;81738;-57
2024/02/06 09:08:05;;;;;;;4.13;2.00;;;23.50;45.80;;;;;;6158029;28;80434;-59
2024/02/06 09:11:05;;;;;;;4.97;2.63;;;23.50;45.70;;;;;;6177801;28;83134;-57
2024/02/06 09:14:06;;;;;;;4.05;2.25;;;23.40;45.50;;;;;;6177252;28;80382;-57
2024/02/06 09:17:06;;;;;;;6.13;2.50;;;23.50;45.60;;;;;;6178225;28;81117;-57
2024/02/06 09:20:07;;;;;;;5.40;2.10;;;23.50;45.60;;;;;;6176941;28;80335;-59
2024/02/06 09:23:07;;;;;;;8.00;2.88;;;23.50;45.50;;;;;;6176601;28;83748;-58
2024/02/06 09:26:08;;;;;;;5.35;2.20;;;23.50;45.40;;;;;;6176344;28;81118;-56
2024/02/06 09:29:08;;;;;;;6.05;2.03;;;23.50;45.20;;;;;;6178402;28;82621;-57
2024/02/06 09:32:09;;;;;;;8.68;3.42;;;23.50;45.30;;;;;;6172258;28;80361;-59
2024/02/06 09:35:10;;;;;;;7.45;2.15;;;23.50;45.30;;;;;;6176747;28;80351;-58
2024/02/06 09:38:10;;;;;;;3.92;1.85;;;23.50;45.60;;;;;;6177150;28;81095;-57
2024/02/06 09:41:11;;;;;;;3.00;2.20;;;23.50;45.80;;;;;;6177970;28;80499;-57
2024/02/06 09:44:11;;;;;;;4.50;2.35;;;23.50;46.20;;;;;;6175633;28;80549;-58
2024/02/06 09:47:12;;;;;;;8.02;2.42;;;23.50;45.10;;;;;;6174994;28;81075;-58
2024/02/06 09:50:12;;;;;;;3.83;1.83;;;23.60;45.20;;;;;;6169796;28;80461;-56
2024/02/06 09:53:13;;;;;;;3.92;1.88;;;23.60;44.70;;;;;;6172143;28;81759;-58
2024/02/06 09:56:13;;;;;;;3.17;1.75;;;23.60;44.70;;;;;;6177084;28;80618;-58
2024/02/06 09:59:14;;;;;;;2.88;1.75;;;23.60;44.80;;;;;;6176826;28;82329;-59
2024/02/06 10:02:14;;;;;;;4.25;2.38;;;23.60;44.90;;;;;;6165955;28;81572;-56
2024/02/06 10:05:15;;;;;;;6.40;2.05;;;23.60;45.00;;;;;;6176528;28;80620;-58
2024/02/06 10:08:16;;;;;;;4.68;2.58;;;23.60;45.00;;;;;;6169525;28;80276;-52
2024/02/06 10:11:17;;;;;;;5.38;2.10;;;23.70;45.10;;;;;;6157584;28;81513;-50
2024/02/06 10:14:17;;;;;;;3.67;1.90;;;23.70;45.00;;;;;;6161345;28;80410;-51
2024/02/06 10:17:18;;;;;;;3.42;1.98;;;23.80;45.00;;;;;;6153313;28;81118;-53
2024/02/06 10:20:18;;;;;;;3.78;1.40;;;23.80;45.50;;;;;;6153396;28;85271;-52
2024/02/06 10:23:19;;;;;;;5.28;2.13;;;23.90;45.00;;;;;;6151812;28;80491;-53
2024/02/06 10:26:20;;;;;;;4.82;2.13;;;23.90;45.00;;;;;;6152849;28;80628;-58
2024/02/06 10:29:21;;;;;;;4.72;1.95;;;24.00;45.10;;;;;;6152531;28;80371;-58
2024/02/06 10:32:21;;;;;;;5.28;1.83;;;24.10;44.90;;;;;;6152640;28;80523;-58
2024/02/06 10:35:23;;;;;;;4.72;1.85;;;24.10;44.80;;;;;;6168158;28;81193;-58
2024/02/06 10:38:23;;;;;;;2.60;1.63;;;24.10;44.70;;;;;;6161753;28;80540;-57
2024/02/06 10:41:24;;;;;;;3.78;1.95;;;24.20;44.70;;;;;;6165031;28;80411;-57
2024/02/06 10:44:26;;;;;;;2.50;1.58;;;24.20;44.80;;;;;;6162173;28;80416;-53
2024/02/06 10:47:27;;;;;;;2.47;1.60;;;24.30;44.90;;;;;;6175530;28;80782;-53
2024/02/06 10:50:27;;;;;;;2.35;1.60;;;24.30;44.90;;;;;;6175064;28;80618;-51
2024/02/06 10:53:28;;;;;;;3.25;1.55;;;24.30;45.00;;;;;;6175173;28;81876;-48
2024/02/06 10:56:28;;;;;;;3.92;2.03;;;24.20;44.70;;;;;;6170557;28;80714;-54
2024/02/06 10:59:29;;;;;;;2.53;1.52;;;24.30;44.80;;;;;;6168841;28;80353;-49
2024/02/06 11:02:30;;;;;;;4.55;1.88;;;24.30;44.80;;;;;;6175730;28;80418;-67
2024/02/06 11:05:31;;;;;;;6.72;2.42;;;24.30;45.10;;;;;;6175658;28;80354;-50
2024/02/06 11:08:31;;;;;;;5.88;1.55;;;24.30;45.20;;;;;;6167005;28;80741;-52
2024/02/06 11:11:32;;;;;;;3.75;2.22;;;24.20;45.10;;;;;;6159007;28;82501;-53
2024/02/06 11:14:33;;;;;;;3.47;1.50;;;24.20;45.00;;;;;;6171506;28;81313;-51
2024/02/06 11:17:34;;;;;;;2.00;1.50;;;24.10;45.10;;;;;;6151235;28;80964;-53
2024/02/06 11:20:35;;;;;;;5.15;2.17;;;24.10;45.30;;;;;;6166958;28;80525;-52
2024/02/06 11:23:36;;;;;;;2.40;1.67;;;24.10;45.10;;;;;;6180097;28;80644;-56
2024/02/06 11:26:36;;;;;;;2.63;1.65;;;24.10;45.00;;;;;;6168116;28;82314;-52
2024/02/06 11:29:37;;;;;;;4.90;1.40;;;24.10;45.60;;;;;;6179777;28;80945;-53
2024/02/06 11:32:37;;;;;;;3.47;1.85;;;24.10;45.40;;;;;;6178471;28;82664;-48
2024/02/06 11:35:38;;;;;;;4.28;1.77;;;24.10;45.30;;;;;;6179324;28;86000;-52
2024/02/06 11:38:38;;;;;;;4.00;1.80;;;24.10;45.30;;;;;;6177161;28;80695;-54
2024/02/06 11:41:39;;;;;;;2.97;1.70;;;24.00;45.20;;;;;;6154960;28;80636;-59
2024/02/06 11:44:40;;;;;;;4.03;1.85;;;24.00;45.10;;;;;;6154644;28;80946;-58
2024/02/06 11:47:40;;;;;;;4.13;2.13;;;24.00;45.00;;;;;;6155848;28;80555;-59
2024/02/06 11:50:41;;;;;;;2.38;1.63;;;24.00;44.90;;;;;;6155346;28;80605;-59
2024/02/06 11:53:41;;;;;;;4.45;1.90;;;24.00;44.80;;;;;;6145285;28;80493;-58
2024/02/06 11:56:42;;;;;;;4.28;2.20;;;24.00;44.80;;;;;;6151722;28;80616;-58
2024/02/06 11:59:42;;;;;;;3.28;1.95;;;24.00;44.90;;;;;;6154336;28;81313;-60
2024/02/06 12:02:45;;;;;;;4.57;1.70;;;23.90;44.90;;;;;;6154864;28;82157;-60
2024/02/06 12:05:45;;;;;;;4.00;2.00;;;23.90;44.70;;;;;;6155680;28;80448;-60
2024/02/06 12:08:46;;;;;;;3.92;2.13;;;23.90;44.60;;;;;;6144180;28;81430;-60
2024/02/06 12:11:46;;;;;;;3.65;1.80;;;23.90;44.60;;;;;;6152766;28;81379;-60
2024/02/06 12:14:47;;;;;;;6.57;2.28;;;23.90;44.60;;;;;;6150924;28;80531;-61
2024/02/06 12:17:48;;;;;;;3.67;1.95;;;23.80;44.40;;;;;;6159351;28;80684;-62
2024/02/06 12:20:49;;;;;;;2.85;1.58;;;23.80;44.30;;;;;;6170233;28;80686;-60
2024/02/06 12:23:49;;;;;;;3.80;1.75;;;23.80;44.30;;;;;;6158046;28;80575;-60
2024/02/06 12:26:50;;;;;;;3.58;1.92;;;23.80;44.40;;;;;;6175457;28;81684;-60
2024/02/06 12:29:51;;;;;;;2.83;1.52;;;23.80;44.20;;;;;;6154732;28;80589;-61
2024/02/06 12:32:51;;;;;;;2.28;1.45;;;23.70;44.20;;;;;;6152620;28;80751;-60
2024/02/06 12:35:52;;;;;;;4.72;2.00;;;23.80;44.10;;;;;;6154500;28;80707;-59
2024/02/06 12:38:55;;;;;;;6.38;1.90;;;23.70;43.90;;;;;;6154643;28;80736;-58
2024/02/06 12:41:56;;;;;;;5.68;2.13;;;23.70;43.70;;;;;;6154346;28;80925;-58
2024/02/06 12:44:56;;;;;;;4.75;1.80;;;23.70;43.90;;;;;;6153894;28;82876;-58
2024/02/06 12:47:57;;;;;;;3.38;1.55;;;23.70;43.60;;;;;;6154441;28;81859;-58
2024/02/06 12:50:57;;;;;;;4.50;2.03;;;23.70;43.60;;;;;;6144820;28;80655;-59
2024/02/06 12:53:58;;;;;;;2.67;1.73;;;23.70;43.80;;;;;;6155194;28;81005;-55
2024/02/06 12:56:58;;;;;;;2.92;1.80;;;23.70;43.70;;;;;;6140777;28;80613;-53
2024/02/06 12:59:59;;;;;;;2.30;1.60;;;23.70;43.60;;;;;;6154096;28;80406;-53
2024/02/06 13:02:59;;;;;;;3.40;1.63;;;23.70;43.80;;;;;;6154103;28;80425;-52
2024/02/06 13:06:00;;;;;;;5.63;1.75;;;23.70;43.80;;;;;;6153008;28;81297;-53
2024/02/06 13:09:01;;;;;;;3.80;1.92;;;23.60;43.70;;;;;;6154512;28;80536;-51
2024/02/06 13:12:01;;;;;;;3.38;1.60;;;23.60;43.70;;;;;;6142199;28;80426;-59
2024/02/06 13:15:05;;;;;;;4.38;2.05;;;23.70;43.60;;;;;;6151265;28;81768;-59
2024/02/06 13:18:06;;;;;;;6.10;1.88;;;23.60;43.50;;;;;;6145549;28;80501;-59
2024/02/06 13:21:08;;;;;;;3.55;1.80;;;23.60;43.40;;;;;;6139876;28;80350;-59
2024/02/06 13:24:08;;;;;;;3.38;1.90;;;23.60;43.40;;;;;;6153526;28;80517;-59
2024/02/06 13:27:09;;;;;;;4.05;2.10;;;23.60;43.40;;;;;;6151787;28;80534;-58
2024/02/06 13:30:10;;;;;;;3.10;1.83;;;23.60;43.20;;;;;;6152284;28;81221;-58
2024/02/06 13:33:11;;;;;;;5.72;2.30;;;23.60;43.20;;;;;;6154523;28;80919;-59
2024/02/06 13:36:11;;;;;;;3.88;2.53;;;23.60;43.20;;;;;;6153139;28;80998;-59
2024/02/06 13:39:12;;;;;;;4.88;2.00;;;23.60;43.20;;;;;;6152714;28;81078;-59
2024/02/06 13:42:12;;;;;;;3.80;2.08;;;23.60;43.00;;;;;;6152884;28;81522;-59
2024/02/06 13:45:13;;;;;;;3.70;1.88;;;23.60;43.10;;;;;;6150076;28;80805;-59
2024/02/06 13:48:13;;;;;;;4.18;2.13;;;23.50;43.00;;;;;;6151632;28;80848;-59
2024/02/06 13:51:14;;;;;;;4.53;2.13;;;23.60;43.10;;;;;;6151157;28;80513;-57
2024/02/06 13:54:14;;;;;;;3.83;2.10;;;23.50;43.10;;;;;;6141962;28;80598;-57
2024/02/06 13:57:15;;;;;;;5.90;2.05;;;23.60;43.10;;;;;;6152989;28;80835;-58
2024/02/06 14:00:15;;;;;;;4.35;1.92;;;23.50;43.00;;;;;;6151869;28;80599;-58
2024/02/06 14:03:16;;;;;;;2.40;1.80;;;23.50;43.00;;;;;;6152565;28;82708;-58
2024/02/06 14:06:16;;;;;;;5.22;2.50;;;23.50;42.90;;;;;;6147832;28;80580;-65
2024/02/06 14:09:17;;;;;;;3.97;2.28;;;23.50;43.00;;;;;;6174369;28;81117;-65
2024/02/06 14:12:20;;;;;;;8.07;2.80;;;23.50;43.20;;;;;;6174449;28;83530;-56
2024/02/06 14:15:20;;;;;;;4.85;1.90;;;23.50;43.30;;;;;;6146859;28;80470;-55
2024/02/06 14:18:21;;;;;;;5.50;2.08;;;23.50;43.40;;;;;;6151623;28;80452;-56
2024/02/06 14:21:21;;;;;;;4.55;2.10;;;23.50;43.50;;;;;;6138601;28;80239;-53
2024/02/06 14:24:22;;;;;;;6.50;2.33;;;23.50;44.20;;;;;;6126055;28;81014;-52
2024/02/06 14:27:23;;;;;;;7.18;2.20;;;23.50;44.30;;;;;;6150566;28;83681;-64
2024/02/06 14:30:24;;;;;;;4.40;1.95;;;23.50;44.60;;;;;;6150670;28;80900;-60
2024/02/06 14:33:24;;;;;;;7.60;2.53;;;23.50;44.60;;;;;;6143406;28;81190;-62
2024/02/06 14:36:25;;;;;;;8.70;2.38;;;23.50;45.00;;;;;;6148468;28;81020;-61
2024/02/06 14:39:25;;;;;;;9.70;2.53;;;23.50;45.10;;;;;;6143513;28;82986;-59
2024/02/06 14:42:26;;;;;;;7.68;3.25;;;23.60;45.10;;;;;;6148664;28;80433;-60
2024/02/06 14:45:26;;;;;;;4.88;1.83;;;23.60;44.90;;;;;;6143885;28;81912;-58
2024/02/06 14:48:27;;;;;;;3.42;2.03;;;23.60;45.30;;;;;;6140180;28;81272;-58
2024/02/06 14:51:27;;;;;;;7.22;1.90;;;23.60;45.10;;;;;;6154879;28;80633;-61
2024/02/06 14:54:28;;;;;;;5.57;2.13;;;23.60;45.40;;;;;;6145944;28;87801;-59
2024/02/06 14:57:29;;;;;;;3.85;2.00;;;23.60;45.00;;;;;;6157794;28;80947;-60
2024/02/06 15:00:29;;;;;;;4.20;1.92;;;23.60;45.20;;;;;;6166240;28;80862;-61
2024/02/06 15:03:30;;;;;;;3.92;2.20;;;23.60;45.60;;;;;;6149152;28;82847;-67
2024/02/06 15:06:31;;;;;;;5.15;2.05;;;23.60;46.20;;;;;;6146036;28;81154;-68
2024/02/06 15:09:32;;;;;;;4.20;2.17;;;23.60;46.40;;;;;;6141355;28;81309;-66
2024/02/06 15:12:32;;;;;;;6.22;2.45;;;23.60;47.10;;;;;;6147959;28;85202;-71
2024/02/06 15:15:33;;;;;;;3.17;1.98;;;23.60;46.70;;;;;;6150935;28;81126;-69
2024/02/06 15:18:34;;;;;;;5.78;1.85;;;23.60;46.40;;;;;;6147034;28;86637;-65
2024/02/06 15:21:34;;;;;;;9.00;2.50;;;23.70;46.40;;;;;;6149308;28;80620;-67
2024/02/06 15:24:35;;;;;;;3.50;1.80;;;23.70;46.20;;;;;;6146031;28;85655;-72
2024/02/06 15:27:35;;;;;;;5.43;2.20;;;23.70;46.30;;;;;;6148633;28;82832;-70
2024/02/06 15:30:36;;;;;;;11.48;3.15;;;23.70;46.40;;;;;;6147606;28;80418;-69
2024/02/06 15:33:36;;;;;;;4.40;1.83;;;23.70;45.70;;;;;;6148699;28;80752;-71
2024/02/06 15:36:37;;;;;;;4.18;1.88;;;23.60;46.00;;;;;;6147867;28;80691;-68
2024/02/06 15:39:37;;;;;;;6.25;1.92;;;23.60;46.00;;;;;;6147195;28;80687;-72
2024/02/06 15:42:38;;;;;;;6.13;1.77;;;23.60;45.90;;;;;;6149886;28;80659;-67